Time;durP1;ratioP1;P1;durP2;ratioP2;P2;SDS_P1;SDS_P2;PMS_P1;PMS_P2;Temp;Humidity;BMP_temperature;BMP_pressure;BME280_temperature;BME280_humidity;BME280_pressure;Samples;Min_cycle;Max_cycle;Signal;HPM_P1;HPM_P2
2023/12/27 00:02:07;;;;;;;2.67;1.20;;;9.50;99.90;;;;;;5054220;28;20036;-61
2023/12/27 00:04:33;;;;;;;3.03;1.23;;;9.50;99.90;;;;;;5053955;28;20031;-67
2023/12/27 00:06:58;;;;;;;2.83;1.10;;;9.50;99.90;;;;;;5054208;28;20028;-62
2023/12/27 00:09:24;;;;;;;2.38;1.30;;;9.50;99.90;;;;;;5054451;28;20115;-62
2023/12/27 00:11:50;;;;;;;3.70;1.27;;;9.60;99.90;;;;;;5054989;28;20025;-66
2023/12/27 00:14:15;;;;;;;1.92;1.00;;;9.60;99.90;;;;;;5056027;28;20487;-66
2023/12/27 00:16:41;;;;;;;3.15;1.25;;;9.60;99.90;;;;;;5055065;28;20521;-62
2023/12/27 00:19:06;;;;;;;3.40;1.23;;;9.60;99.90;;;;;;5054268;28;20044;-62
2023/12/27 00:21:33;;;;;;;3.13;1.10;;;9.60;99.90;;;;;;5052701;28;20025;-61
2023/12/27 00:23:58;;;;;;;1.20;1.08;;;9.60;99.90;;;;;;5053810;28;20025;-61
2023/12/27 00:26:24;;;;;;;1.85;1.10;;;9.60;99.90;;;;;;5055576;28;20021;-61
2023/12/27 00:28:50;;;;;;;2.00;1.30;;;9.60;99.90;;;;;;5056613;28;20033;-61
2023/12/27 00:31:15;;;;;;;3.33;1.35;;;9.60;99.90;;;;;;5057148;28;20025;-61
2023/12/27 00:33:41;;;;;;;3.60;1.55;;;9.50;99.90;;;;;;5057335;28;20372;-61
2023/12/27 00:36:08;;;;;;;4.05;1.20;;;9.60;99.90;;;;;;5057256;28;20040;-61
2023/12/27 00:38:37;;;;;;;2.35;1.40;;;9.60;99.90;;;;;;5056819;28;20508;-61
2023/12/27 00:41:03;;;;;;;3.28;1.40;;;9.60;99.90;;;;;;5057165;28;20035;-61
2023/12/27 00:43:29;;;;;;;3.13;1.27;;;9.60;99.90;;;;;;5057374;28;20060;-61
2023/12/27 00:45:55;;;;;;;1.80;1.60;;;9.50;99.90;;;;;;5056767;28;20106;-61
2023/12/27 00:48:20;;;;;;;5.50;1.42;;;9.50;99.90;;;;;;5057052;28;20417;-61
2023/12/27 00:50:46;;;;;;;1.48;1.25;;;9.50;99.90;;;;;;5057259;28;20037;-61
2023/12/27 00:53:12;;;;;;;2.13;1.25;;;9.50;99.90;;;;;;5055764;28;20053;-61
2023/12/27 00:55:37;;;;;;;2.38;1.40;;;9.50;99.90;;;;;;5056901;28;20354;-61
2023/12/27 00:58:03;;;;;;;2.35;2.00;;;9.50;99.90;;;;;;5056746;28;20063;-61
2023/12/27 01:00:28;;;;;;;4.03;1.52;;;9.50;99.90;;;;;;5056829;28;20025;-61
2023/12/27 01:02:54;;;;;;;3.53;1.77;;;9.50;99.90;;;;;;5057110;28;20040;-61
2023/12/27 01:05:20;;;;;;;7.60;2.28;;;9.50;99.90;;;;;;5056861;28;20465;-61
2023/12/27 01:07:45;;;;;;;6.15;1.75;;;9.50;99.90;;;;;;5056736;28;20104;-61
2023/12/27 01:10:11;;;;;;;2.67;1.42;;;9.50;99.90;;;;;;5056662;28;20026;-61
2023/12/27 01:12:37;;;;;;;2.22;1.35;;;9.50;99.90;;;;;;5055297;28;20032;-61
2023/12/27 01:15:03;;;;;;;3.08;1.95;;;9.50;99.90;;;;;;5055596;28;20032;-61
2023/12/27 01:17:28;;;;;;;1.67;1.58;;;9.50;99.90;;;;;;5056419;28;20061;-61
2023/12/27 01:19:54;;;;;;;3.00;1.50;;;9.50;99.90;;;;;;5056142;28;20083;-61
2023/12/27 01:22:20;;;;;;;3.50;1.58;;;9.50;99.90;;;;;;5056396;28;20047;-61
2023/12/27 01:24:45;;;;;;;3.90;1.70;;;9.50;99.90;;;;;;5056436;28;20040;-61
2023/12/27 01:27:11;;;;;;;2.65;1.30;;;9.50;99.90;;;;;;5056591;28;20029;-61
2023/12/27 01:29:36;;;;;;;4.00;1.52;;;9.50;99.90;;;;;;5056633;28;20056;-61
2023/12/27 01:32:02;;;;;;;1.85;1.40;;;9.50;99.90;;;;;;5056178;28;20480;-61
2023/12/27 01:34:28;;;;;;;4.53;1.58;;;9.50;99.90;;;;;;5056236;28;20151;-61
2023/12/27 01:36:53;;;;;;;2.75;1.42;;;9.50;99.90;;;;;;5055665;28;20025;-61
2023/12/27 01:39:19;;;;;;;4.30;1.30;;;9.50;99.90;;;;;;5055971;28;20033;-61
2023/12/27 01:41:44;;;;;;;4.35;1.50;;;9.50;99.90;;;;;;5054776;28;20033;-61
2023/12/27 01:44:11;;;;;;;3.85;1.65;;;9.60;99.90;;;;;;5055954;28;20029;-61
2023/12/27 01:46:37;;;;;;;3.72;1.73;;;9.50;99.90;;;;;;5055915;28;20033;-62
2023/12/27 01:49:03;;;;;;;6.05;1.77;;;9.50;99.90;;;;;;5055918;28;20108;-62
2023/12/27 01:51:30;;;;;;;5.63;1.40;;;9.50;99.90;;;;;;5055605;28;20047;-61
2023/12/27 01:53:57;;;;;;;3.75;1.83;;;9.60;99.90;;;;;;5055889;28;20036;-61
2023/12/27 01:56:23;;;;;;;3.50;1.00;;;9.60;99.90;;;;;;5055739;28;20017;-61
2023/12/27 01:58:49;;;;;;;1.67;1.25;;;9.60;99.90;;;;;;5055409;28;20036;-61
2023/12/27 02:01:15;;;;;;;1.27;0.93;;;9.60;99.90;;;;;;5054127;28;20619;-61
2023/12/27 02:03:41;;;;;;;4.30;1.50;;;9.60;99.90;;;;;;5055721;28;20021;-61
2023/12/27 02:06:07;;;;;;;1.90;1.17;;;9.60;99.90;;;;;;5054332;28;20464;-61
2023/12/27 02:08:32;;;;;;;2.85;1.20;;;9.60;99.90;;;;;;5055668;28;20025;-61
2023/12/27 02:10:58;;;;;;;5.72;1.25;;;9.60;99.90;;;;;;5055520;28;20528;-61
2023/12/27 02:13:24;;;;;;;1.83;1.38;;;9.60;99.90;;;;;;5055441;28;20021;-61
2023/12/27 02:15:51;;;;;;;5.47;1.73;;;9.50;99.90;;;;;;5054179;28;20115;-61
2023/12/27 02:18:18;;;;;;;2.08;1.20;;;9.50;99.90;;;;;;5055415;28;20384;-62
2023/12/27 02:20:45;;;;;;;3.22;1.10;;;9.50;99.90;;;;;;5055510;28;20095;-62
2023/12/27 02:23:13;;;;;;;3.53;1.58;;;9.50;99.90;;;;;;5055538;28;20120;-62
2023/12/27 02:25:39;;;;;;;2.15;1.17;;;9.50;99.90;;;;;;5057205;28;20029;-62
2023/12/27 02:28:05;;;;;;;2.45;1.40;;;9.50;99.90;;;;;;5056366;28;20034;-62
2023/12/27 02:30:33;;;;;;;3.10;1.50;;;9.50;99.90;;;;;;5056767;28;20112;-62
2023/12/27 02:32:59;;;;;;;1.90;1.10;;;9.50;99.90;;;;;;5054645;28;20032;-61
2023/12/27 02:35:24;;;;;;;1.65;1.13;;;9.50;99.90;;;;;;5055256;28;20021;-61
2023/12/27 02:37:50;;;;;;;3.00;1.40;;;9.50;99.90;;;;;;5054851;28;20378;-61
2023/12/27 02:40:15;;;;;;;5.07;0.98;;;9.50;99.90;;;;;;5054596;28;20499;-61
2023/12/27 02:42:41;;;;;;;2.55;1.05;;;9.50;99.90;;;;;;5055167;28;20025;-61
2023/12/27 02:45:07;;;;;;;2.35;1.00;;;9.50;99.90;;;;;;5054801;28;20131;-61
2023/12/27 02:47:36;;;;;;;1.75;0.95;;;9.50;99.90;;;;;;5054758;28;20530;-61
2023/12/27 02:50:01;;;;;;;2.35;1.13;;;9.50;99.90;;;;;;5054398;28;20048;-61
2023/12/27 02:52:27;;;;;;;1.40;0.90;;;9.50;99.90;;;;;;5054672;28;20052;-61
2023/12/27 02:54:55;;;;;;;3.03;0.90;;;9.60;99.90;;;;;;5054944;28;20032;-61
2023/12/27 02:57:21;;;;;;;1.30;0.90;;;9.60;99.90;;;;;;5053375;28;20021;-61
2023/12/27 02:59:46;;;;;;;1.50;0.90;;;9.60;99.90;;;;;;5054822;28;20021;-62
2023/12/27 03:02:12;;;;;;;2.30;0.90;;;9.60;99.90;;;;;;5054511;28;20025;-61
2023/12/27 03:04:38;;;;;;;2.65;1.35;;;9.60;99.90;;;;;;5054222;28;20494;-61
2023/12/27 03:07:03;;;;;;;3.80;1.20;;;9.50;99.90;;;;;;5054168;28;20028;-61
2023/12/27 03:09:29;;;;;;;2.75;1.08;;;9.50;99.90;;;;;;5053068;28;20025;-61
2023/12/27 03:11:56;;;;;;;2.03;1.02;;;9.50;99.90;;;;;;5054037;28;20131;-61
2023/12/27 03:14:21;;;;;;;4.13;1.20;;;9.50;99.90;;;;;;5053065;28;20417;-61
2023/12/27 03:16:47;;;;;;;4.00;1.25;;;9.50;99.90;;;;;;5053972;28;20151;-62
2023/12/27 03:19:12;;;;;;;3.15;0.90;;;9.50;99.90;;;;;;5054152;28;20048;-61
2023/12/27 03:21:38;;;;;;;1.33;0.80;;;9.50;99.90;;;;;;5054482;28;20480;-61
2023/12/27 03:24:04;;;;;;;2.22;1.17;;;9.50;99.90;;;;;;5053844;28;20017;-61
2023/12/27 03:26:29;;;;;;;2.03;0.70;;;9.50;99.90;;;;;;5054364;28;20033;-61
2023/12/27 03:28:55;;;;;;;2.53;0.77;;;9.50;99.90;;;;;;5052811;28;20041;-61
2023/12/27 03:31:28;;;;;;;3.08;0.60;;;9.50;99.90;;;;;;5053339;28;20044;-61
2023/12/27 03:33:55;;;;;;;2.72;1.00;;;9.50;99.90;;;;;;5053018;28;20029;-61
2023/12/27 03:36:20;;;;;;;2.47;0.77;;;9.50;99.90;;;;;;5052657;28;20519;-61
2023/12/27 03:38:46;;;;;;;2.63;0.65;;;9.50;99.90;;;;;;5053876;28;20036;-61
2023/12/27 03:41:12;;;;;;;2.53;1.10;;;9.40;99.90;;;;;;5054201;28;20031;-62
2023/12/27 03:43:37;;;;;;;0.75;0.75;;;9.40;99.90;;;;;;5053552;28;20037;-61
2023/12/27 03:46:03;;;;;;;3.47;0.68;;;9.40;99.90;;;;;;5053675;28;20103;-61
2023/12/27 03:48:28;;;;;;;2.05;0.77;;;9.40;99.90;;;;;;5052540;28;20044;-61
2023/12/27 03:50:54;;;;;;;0.93;0.60;;;9.40;99.90;;;;;;5053837;28;20419;-61
2023/12/27 03:53:20;;;;;;;0.90;0.60;;;9.40;99.90;;;;;;5054114;28;20049;-61
2023/12/27 03:55:45;;;;;;;4.45;1.27;;;9.40;99.90;;;;;;5053678;28;20032;-61
2023/12/27 03:58:11;;;;;;;1.77;0.80;;;9.40;99.90;;;;;;5053786;28;20041;-61
2023/12/27 04:00:36;;;;;;;3.47;0.70;;;9.40;99.90;;;;;;5057636;28;20061;-62
2023/12/27 04:03:02;;;;;;;0.85;0.43;;;9.40;99.90;;;;;;5060004;28;20032;-62
2023/12/27 04:05:28;;;;;;;3.95;0.70;;;9.40;99.90;;;;;;5058980;28;20056;-62
2023/12/27 04:07:54;;;;;;;3.78;0.90;;;9.40;99.90;;;;;;5059964;28;20033;-61
2023/12/27 04:10:19;;;;;;;1.58;0.50;;;9.40;99.90;;;;;;5058937;28;20021;-61
2023/12/27 04:12:45;;;;;;;5.25;1.27;;;9.40;99.90;;;;;;5058944;28;20033;-62
2023/12/27 04:15:11;;;;;;;4.72;0.80;;;9.40;99.90;;;;;;5059112;28;20108;-61
2023/12/27 04:17:36;;;;;;;4.53;0.80;;;9.40;99.90;;;;;;5060429;28;20087;-61
2023/12/27 04:20:03;;;;;;;2.63;0.70;;;9.40;99.90;;;;;;5058898;28;20033;-61
2023/12/27 04:22:28;;;;;;;1.48;0.98;;;9.40;99.90;;;;;;5060135;28;20043;-61
2023/12/27 04:24:54;;;;;;;0.63;0.60;;;9.40;99.90;;;;;;5060134;28;20029;-61
2023/12/27 04:27:19;;;;;;;2.40;0.70;;;9.40;99.90;;;;;;5060170;28;20036;-61
2023/12/27 04:29:45;;;;;;;2.75;0.70;;;9.40;99.90;;;;;;5060147;28;20029;-61
2023/12/27 04:32:11;;;;;;;2.60;0.77;;;9.40;99.90;;;;;;5060069;28;20029;-62
2023/12/27 04:34:36;;;;;;;1.52;0.60;;;9.40;99.90;;;;;;5059966;28;20021;-62
2023/12/27 04:37:02;;;;;;;1.65;0.52;;;9.40;99.90;;;;;;5059621;28;20036;-61
2023/12/27 04:39:28;;;;;;;1.80;0.55;;;9.40;99.90;;;;;;5058520;28;20464;-61
2023/12/27 04:41:53;;;;;;;0.47;0.30;;;9.40;99.90;;;;;;5059979;28;20036;-62
2023/12/27 04:44:19;;;;;;;1.65;0.50;;;9.40;99.90;;;;;;5059839;28;20025;-62
2023/12/27 04:46:44;;;;;;;3.80;0.60;;;9.40;99.90;;;;;;5059995;28;20025;-61
2023/12/27 04:49:12;;;;;;;3.20;0.50;;;9.40;99.90;;;;;;5060187;28;20033;-61
2023/12/27 04:51:38;;;;;;;0.95;0.50;;;9.40;99.90;;;;;;5059684;28;20444;-61
2023/12/27 04:54:04;;;;;;;2.17;0.80;;;9.40;99.90;;;;;;5059809;28;20036;-61
2023/12/27 04:56:30;;;;;;;1.95;0.80;;;9.40;99.90;;;;;;5058834;28;20115;-61
2023/12/27 04:58:56;;;;;;;3.78;0.50;;;9.40;99.90;;;;;;5058644;28;20086;-61
2023/12/27 05:01:21;;;;;;;1.08;0.63;;;9.40;99.90;;;;;;5059828;28;20021;-62
2023/12/27 05:03:47;;;;;;;2.58;0.70;;;9.40;99.90;;;;;;5059062;28;20461;-62
2023/12/27 05:06:13;;;;;;;2.30;0.30;;;9.40;99.90;;;;;;5059667;28;20032;-61
2023/12/27 05:08:40;;;;;;;3.70;0.50;;;9.40;99.90;;;;;;5059784;28;20029;-61
2023/12/27 05:11:13;;;;;;;5.57;0.68;;;9.40;99.90;;;;;;5058874;28;20029;-61
2023/12/27 05:13:39;;;;;;;1.65;0.63;;;9.40;99.90;;;;;;5056508;28;20126;-61
2023/12/27 05:16:12;;;;;;;4.45;0.70;;;9.40;99.90;;;;;;5055297;28;20021;-61
2023/12/27 05:18:39;;;;;;;3.38;0.70;;;9.40;99.90;;;;;;5056382;28;20033;-61
2023/12/27 05:21:05;;;;;;;1.58;0.50;;;9.40;99.90;;;;;;5056446;28;20452;-61
2023/12/27 05:23:31;;;;;;;2.05;0.52;;;9.40;99.90;;;;;;5056376;28;20025;-61
2023/12/27 05:25:56;;;;;;;2.03;0.65;;;9.40;99.90;;;;;;5056307;28;20021;-61
2023/12/27 05:28:23;;;;;;;2.28;0.50;;;9.40;99.90;;;;;;5056037;28;20104;-61
2023/12/27 05:30:49;;;;;;;0.93;0.60;;;9.40;99.90;;;;;;5055669;28;20035;-61
2023/12/27 05:33:15;;;;;;;1.45;0.50;;;9.40;99.90;;;;;;5056245;28;20515;-61
2023/12/27 05:35:41;;;;;;;0.95;0.30;;;9.40;99.90;;;;;;5056152;28;20043;-61
2023/12/27 05:38:07;;;;;;;5.15;0.40;;;9.40;99.90;;;;;;5055759;28;20480;-62
2023/12/27 05:40:32;;;;;;;1.40;0.50;;;9.40;99.90;;;;;;5055998;28;20032;-61
2023/12/27 05:42:58;;;;;;;2.08;0.80;;;9.40;99.90;;;;;;5056340;28;20060;-62
2023/12/27 05:45:24;;;;;;;2.78;0.70;;;9.40;99.90;;;;;;5056362;28;20039;-61
2023/12/27 05:47:50;;;;;;;0.55;0.55;;;9.40;99.90;;;;;;5055674;28;20439;-61
2023/12/27 05:50:15;;;;;;;2.45;1.02;;;9.40;99.90;;;;;;5054678;28;20029;-61
2023/12/27 05:52:41;;;;;;;1.38;0.60;;;9.40;99.90;;;;;;5055545;28;20405;-61
2023/12/27 05:55:07;;;;;;;3.45;0.60;;;9.40;99.90;;;;;;5054610;28;20381;-62
2023/12/27 05:57:33;;;;;;;1.05;0.50;;;9.40;99.90;;;;;;5055816;28;20037;-62
2023/12/27 05:59:58;;;;;;;3.80;0.70;;;9.40;99.90;;;;;;5054377;28;20021;-61
2023/12/27 06:02:24;;;;;;;4.15;0.80;;;9.30;99.90;;;;;;5054138;28;20082;-62
2023/12/27 06:04:50;;;;;;;2.47;0.50;;;9.30;99.90;;;;;;5055584;28;20025;-62
2023/12/27 06:07:15;;;;;;;2.17;0.80;;;9.30;99.90;;;;;;5055787;28;20491;-62
2023/12/27 06:09:41;;;;;;;1.60;0.65;;;9.30;99.90;;;;;;5055520;28;20061;-62
2023/12/27 06:12:08;;;;;;;2.55;0.98;;;9.30;99.90;;;;;;5054440;28;20064;-62
2023/12/27 06:14:34;;;;;;;4.15;0.73;;;9.30;99.90;;;;;;5055614;28;20102;-62
2023/12/27 06:16:59;;;;;;;2.55;0.60;;;9.30;99.90;;;;;;5055381;28;20049;-62
2023/12/27 06:19:25;;;;;;;3.25;0.80;;;9.20;99.90;;;;;;5054002;28;20032;-62
2023/12/27 06:21:51;;;;;;;2.53;1.00;;;9.20;99.90;;;;;;5054104;28;20036;-62
2023/12/27 06:24:16;;;;;;;3.83;0.98;;;9.20;99.90;;;;;;5052870;28;20025;-62
2023/12/27 06:26:42;;;;;;;2.95;1.30;;;9.20;99.90;;;;;;5054016;28;20427;-62
2023/12/27 06:29:08;;;;;;;2.05;0.88;;;9.20;99.90;;;;;;5055242;28;20079;-62
2023/12/27 06:31:34;;;;;;;2.83;0.88;;;9.20;99.90;;;;;;5053984;28;20029;-62
2023/12/27 06:34:00;;;;;;;4.30;1.35;;;9.20;99.90;;;;;;5055104;28;20086;-62
2023/12/27 06:36:26;;;;;;;3.55;0.73;;;9.10;99.90;;;;;;5055686;28;20071;-62
2023/12/27 06:38:52;;;;;;;4.60;0.98;;;9.10;99.90;;;;;;5054997;28;20477;-62
2023/12/27 06:41:18;;;;;;;2.50;0.93;;;9.10;99.90;;;;;;5053655;28;20083;-62
2023/12/27 06:43:44;;;;;;;1.42;0.70;;;9.10;99.90;;;;;;5055077;28;20044;-62
2023/12/27 06:46:10;;;;;;;3.83;1.13;;;9.00;99.90;;;;;;5055075;28;20024;-62
2023/12/27 06:48:36;;;;;;;3.78;1.02;;;9.00;99.90;;;;;;5054536;28;20033;-62
2023/12/27 06:51:03;;;;;;;3.03;1.40;;;9.00;99.90;;;;;;5051991;28;20025;-62
2023/12/27 06:53:29;;;;;;;2.13;0.80;;;9.00;99.90;;;;;;5052991;28;20045;-62
2023/12/27 06:55:55;;;;;;;3.58;0.90;;;8.90;99.90;;;;;;5057021;28;20353;-62
2023/12/27 06:58:21;;;;;;;3.67;1.13;;;8.90;99.90;;;;;;5074447;28;20028;-62
2023/12/27 07:00:47;;;;;;;2.13;1.35;;;8.90;99.90;;;;;;5074522;28;20520;-62
2023/12/27 07:03:13;;;;;;;6.03;1.40;;;8.90;99.90;;;;;;5074473;28;20035;-62
2023/12/27 07:05:39;;;;;;;4.18;1.60;;;8.90;99.90;;;;;;5074494;28;20099;-62
2023/12/27 07:08:05;;;;;;;3.63;1.13;;;8.90;99.90;;;;;;5074395;28;20112;-62
2023/12/27 07:10:31;;;;;;;1.60;1.23;;;8.90;99.90;;;;;;5074415;28;20024;-62
2023/12/27 07:12:57;;;;;;;3.63;1.23;;;8.90;99.90;;;;;;5074865;28;20032;-62
2023/12/27 07:15:23;;;;;;;4.57;1.25;;;8.80;99.90;;;;;;5074242;28;20380;-64
2023/12/27 07:17:49;;;;;;;3.92;1.27;;;8.80;99.90;;;;;;5075467;28;20029;-65
2023/12/27 07:20:15;;;;;;;2.05;1.23;;;8.80;99.90;;;;;;5075590;28;20419;-63
2023/12/27 07:22:40;;;;;;;1.95;1.17;;;8.80;99.90;;;;;;5075254;28;20468;-68
2023/12/27 07:25:06;;;;;;;3.75;1.10;;;8.80;99.90;;;;;;5069222;28;20116;-62
2023/12/27 07:27:32;;;;;;;4.65;1.33;;;8.80;99.90;;;;;;5058977;28;20469;-62
2023/12/27 07:29:57;;;;;;;9.98;3.50;;;8.80;99.90;;;;;;5064145;28;20025;-62
2023/12/27 07:32:23;;;;;;;2.88;2.20;;;8.80;99.90;;;;;;5062756;28;20020;-62
2023/12/27 07:34:49;;;;;;;4.53;2.20;;;8.80;99.90;;;;;;5065324;28;20456;-62
2023/12/27 07:37:14;;;;;;;4.50;1.75;;;8.80;99.90;;;;;;5061190;28;20025;-65
2023/12/27 07:39:41;;;;;;;4.68;1.67;;;8.80;99.90;;;;;;5052449;28;20040;-62
2023/12/27 07:42:07;;;;;;;3.33;1.92;;;8.80;99.90;;;;;;5052889;28;20036;-62
2023/12/27 07:44:32;;;;;;;4.13;1.80;;;8.90;99.90;;;;;;5053837;28;20028;-62
2023/12/27 07:46:58;;;;;;;2.90;1.65;;;8.90;99.90;;;;;;5053524;28;20130;-62
2023/12/27 07:49:25;;;;;;;7.53;2.30;;;8.90;99.90;;;;;;5052548;28;20029;-62
2023/12/27 07:51:50;;;;;;;5.15;1.70;;;8.90;99.90;;;;;;5052634;28;20056;-62
2023/12/27 07:54:16;;;;;;;4.38;1.80;;;8.90;99.90;;;;;;5054143;28;20025;-62
2023/12/27 07:56:42;;;;;;;4.55;1.50;;;9.00;99.90;;;;;;5053743;28;20029;-62
2023/12/27 07:59:08;;;;;;;3.42;1.52;;;9.00;99.90;;;;;;5057317;28;20040;-63
2023/12/27 08:01:33;;;;;;;2.20;1.63;;;9.00;99.90;;;;;;5062350;28;20013;-62
2023/12/27 08:03:59;;;;;;;5.82;1.98;;;9.00;99.90;;;;;;5068424;28;20025;-62
2023/12/27 08:06:26;;;;;;;5.13;2.58;;;9.00;99.90;;;;;;5063258;28;20059;-62
2023/12/27 08:08:52;;;;;;;3.78;1.75;;;9.00;99.90;;;;;;5052297;28;20039;-63
2023/12/27 08:11:18;;;;;;;4.88;1.52;;;9.10;99.90;;;;;;5054046;28;20376;-62
2023/12/27 08:13:44;;;;;;;3.53;1.60;;;9.10;99.90;;;;;;5052288;28;20021;-62
2023/12/27 08:16:09;;;;;;;3.50;1.52;;;9.20;99.90;;;;;;5052635;28;20025;-62
2023/12/27 08:18:35;;;;;;;1.83;1.25;;;9.20;99.90;;;;;;5051851;28;20037;-62
2023/12/27 08:21:01;;;;;;;3.20;1.50;;;9.20;99.90;;;;;;5053470;28;20021;-62
2023/12/27 08:23:27;;;;;;;3.70;1.45;;;9.20;99.90;;;;;;5053673;28;20040;-62
2023/12/27 08:25:52;;;;;;;5.00;1.98;;;9.30;99.90;;;;;;5053417;28;20021;-62
2023/12/27 08:28:18;;;;;;;4.95;1.50;;;9.40;99.90;;;;;;5053359;28;20078;-62
2023/12/27 08:30:44;;;;;;;3.10;1.50;;;9.40;99.90;;;;;;5051774;28;20029;-62
2023/12/27 08:33:10;;;;;;;4.70;1.67;;;9.60;99.90;;;;;;5052562;28;20031;-62
2023/12/27 08:35:36;;;;;;;5.68;1.80;;;9.70;99.90;;;;;;5053706;28;20358;-62
2023/12/27 08:38:03;;;;;;;4.05;2.00;;;9.90;99.90;;;;;;5052648;28;20037;-59
2023/12/27 08:40:28;;;;;;;5.85;1.48;;;10.10;99.90;;;;;;5053220;28;20025;-63
2023/12/27 08:42:54;;;;;;;5.93;2.70;;;10.30;99.90;;;;;;5052052;28;20025;-60
2023/12/27 08:45:20;;;;;;;7.40;1.40;;;10.50;99.90;;;;;;5053242;28;20025;-60
2023/12/27 08:47:46;;;;;;;4.55;2.03;;;10.60;99.90;;;;;;5054354;28;20037;-60
2023/12/27 08:50:12;;;;;;;7.30;1.70;;;10.70;99.90;;;;;;5057063;28;20098;-60
2023/12/27 08:52:39;;;;;;;4.35;1.52;;;10.60;99.90;;;;;;5055929;28;20081;-60
2023/12/27 08:55:10;;;;;;;4.18;2.20;;;10.50;99.90;;;;;;5056960;28;20025;-63
2023/12/27 08:57:37;;;;;;;3.88;1.85;;;10.40;99.90;;;;;;5056917;28;20107;-62
2023/12/27 09:00:06;;;;;;;4.13;1.80;;;10.20;99.90;;;;;;5057145;28;20088;-62
2023/12/27 09:02:31;;;;;;;5.57;1.70;;;10.20;99.90;;;;;;5055940;28;20033;-63
2023/12/27 09:04:57;;;;;;;3.70;1.90;;;10.20;99.90;;;;;;5056469;28;20040;-63
2023/12/27 09:07:22;;;;;;;6.18;2.08;;;10.30;99.90;;;;;;5055971;28;20468;-62
2023/12/27 09:09:48;;;;;;;5.75;2.28;;;10.50;99.90;;;;;;5056375;28;20107;-62
2023/12/27 09:12:14;;;;;;;4.68;1.90;;;10.70;99.90;;;;;;5056325;28;20388;-62
2023/12/27 09:14:40;;;;;;;4.40;1.50;;;10.90;99.90;;;;;;5056231;28;20533;-62
2023/12/27 09:17:06;;;;;;;5.40;2.03;;;11.00;99.90;;;;;;5056624;28;20103;-62
2023/12/27 09:19:31;;;;;;;6.95;1.95;;;11.00;99.90;;;;;;5055312;28;20159;-62
2023/12/27 09:21:57;;;;;;;6.15;2.35;;;11.10;99.90;;;;;;5054263;28;20457;-63
2023/12/27 09:24:22;;;;;;;5.57;2.10;;;11.10;99.90;;;;;;5056331;28;20021;-62
2023/12/27 09:26:48;;;;;;;2.50;1.55;;;11.10;99.90;;;;;;5055390;28;20033;-63
2023/12/27 09:29:15;;;;;;;5.90;2.22;;;11.10;99.90;;;;;;5056021;28;20083;-63
2023/12/27 09:31:41;;;;;;;3.53;1.90;;;11.10;99.90;;;;;;5054945;28;20029;-64
2023/12/27 09:34:07;;;;;;;4.68;1.55;;;11.10;99.90;;;;;;5058148;28;20120;-63
2023/12/27 09:36:32;;;;;;;2.72;1.63;;;11.00;99.90;;;;;;5061751;28;20455;-63
2023/12/27 09:38:58;;;;;;;6.30;1.90;;;11.00;99.90;;;;;;5054948;28;20040;-63
2023/12/27 09:41:24;;;;;;;4.95;1.70;;;11.00;99.90;;;;;;5055954;28;20052;-63
2023/12/27 09:43:53;;;;;;;2.83;1.80;;;11.00;99.90;;;;;;5056010;28;20396;-63
2023/12/27 09:46:21;;;;;;;4.05;1.50;;;11.00;99.90;;;;;;5054655;28;20464;-63
2023/12/27 09:48:48;;;;;;;2.38;1.10;;;11.10;99.90;;;;;;5055980;28;20113;-63
2023/12/27 09:51:22;;;;;;;3.22;1.63;;;11.10;99.90;;;;;;5053661;28;20456;-63
2023/12/27 09:53:48;;;;;;;4.82;1.42;;;11.10;99.90;;;;;;5056679;28;20579;-63
2023/12/27 09:56:15;;;;;;;4.90;1.60;;;11.20;99.90;;;;;;5055007;28;20112;-63
2023/12/27 09:58:41;;;;;;;4.28;1.48;;;11.20;99.90;;;;;;5055301;28;20128;-63
2023/12/27 10:01:09;;;;;;;4.88;1.70;;;11.20;99.90;;;;;;5055405;28;20074;-63
2023/12/27 10:03:37;;;;;;;5.88;1.83;;;11.20;99.90;;;;;;5055426;28;20032;-63
2023/12/27 10:06:28;;;;;;;2.85;1.42;;;11.30;99.90;;;;;;5055614;28;20025;-63
2023/12/27 10:08:54;;;;;;;4.60;1.15;;;11.20;99.90;;;;;;5035649;28;20389;-63
2023/12/27 10:11:21;;;;;;;3.72;1.35;;;11.20;99.90;;;;;;5035601;28;20040;-63
2023/12/27 10:13:50;;;;;;;5.50;1.45;;;11.10;99.90;;;;;;5035625;28;20147;-63
2023/12/27 10:16:16;;;;;;;1.95;1.23;;;11.10;99.90;;;;;;5035481;28;20037;-63
2023/12/27 10:18:45;;;;;;;1.50;1.10;;;11.20;99.90;;;;;;5035301;28;20377;-63
2023/12/27 10:21:11;;;;;;;2.40;0.95;;;11.20;99.90;;;;;;5049150;28;20365;-66
2023/12/27 10:23:36;;;;;;;3.85;1.30;;;11.30;99.90;;;;;;5054362;28;20028;-63
2023/12/27 10:26:03;;;;;;;3.35;1.48;;;11.30;99.80;;;;;;5055186;28;20029;-63
2023/12/27 10:28:28;;;;;;;3.28;1.30;;;11.40;99.70;;;;;;5054883;28;20529;-63
2023/12/27 10:30:54;;;;;;;3.92;1.40;;;11.40;99.90;;;;;;5054762;28;20029;-63
2023/12/27 10:33:20;;;;;;;5.15;1.40;;;11.40;99.90;;;;;;5053746;28;20025;-63
2023/12/27 10:35:49;;;;;;;4.65;1.50;;;11.30;99.90;;;;;;5053696;28;20029;-63
2023/12/27 10:38:15;;;;;;;;;;;11.30;99.90;;;;;;5053075;28;20071;-63
2023/12/27 10:40:41;;;;;;;5.97;1.55;;;11.30;99.90;;;;;;5054689;28;20349;-63
2023/12/27 10:43:08;;;;;;;10.75;3.42;;;11.30;99.90;;;;;;5053750;28;20029;-63
2023/12/27 10:45:35;;;;;;;4.88;1.10;;;11.40;99.70;;;;;;5054731;28;20454;-63
2023/12/27 10:48:04;;;;;;;3.03;1.30;;;11.50;99.00;;;;;;5055063;28;20040;-63
2023/12/27 10:50:32;;;;;;;2.00;0.80;;;11.70;99.10;;;;;;5053912;28;20024;-63
2023/12/27 10:53:08;;;;;;;2.90;1.58;;;11.90;98.60;;;;;;5054710;28;20045;-63
2023/12/27 10:55:35;;;;;;;2.67;1.00;;;12.00;97.80;;;;;;5053580;28;20029;-63
2023/12/27 10:58:04;;;;;;;2.17;1.50;;;12.90;97.20;;;;;;5054411;28;20086;-63
2023/12/27 11:00:29;;;;;;;4.00;0.70;;;14.40;94.10;;;;;;5054540;28;20025;-63
2023/12/27 11:02:57;;;;;;;3.10;0.82;;;15.60;91.40;;;;;;5054390;28;20475;-63
2023/12/27 11:05:27;;;;;;;4.47;1.23;;;16.70;87.20;;;;;;5054150;28;20036;-63
2023/12/27 11:07:54;;;;;;;5.13;0.90;;;17.40;81.40;;;;;;5053486;28;20032;-63
2023/12/27 11:10:21;;;;;;;2.88;0.82;;;18.20;76.30;;;;;;5052723;28;20142;-63
2023/12/27 11:12:47;;;;;;;2.45;0.60;;;18.70;72.00;;;;;;5054218;28;20028;-63
2023/12/27 11:15:20;;;;;;;1.73;0.70;;;19.00;69.90;;;;;;5053054;28;20429;-63
2023/12/27 11:17:48;;;;;;;3.88;2.28;;;19.50;67.10;;;;;;5053959;28;20453;-64
2023/12/27 11:20:14;;;;;;;2.58;0.50;;;19.90;64.90;;;;;;5054624;28;20227;-63
2023/12/27 11:22:42;;;;;;;2.28;0.63;;;19.70;62.80;;;;;;5054315;28;20373;-63
2023/12/27 11:25:07;;;;;;;2.10;0.68;;;18.70;64.00;;;;;;5052213;28;20137;-63
2023/12/27 11:27:34;;;;;;;2.40;0.80;;;18.50;64.70;;;;;;5051885;28;20112;-63
2023/12/27 11:30:00;;;;;;;1.73;0.70;;;18.80;64.10;;;;;;5050503;28;20461;-64
2023/12/27 11:32:27;;;;;;;1.63;0.50;;;19.10;63.00;;;;;;5050710;28;20530;-64
2023/12/27 11:34:54;;;;;;;2.58;0.70;;;19.00;63.20;;;;;;5053629;28;20108;-63
2023/12/27 11:37:25;;;;;;;1.77;0.80;;;19.10;62.70;;;;;;5051221;28;20393;-64
2023/12/27 11:39:52;;;;;;;2.40;0.75;;;18.90;62.60;;;;;;5066930;28;20036;-60
2023/12/27 11:42:18;;;;;;;3.13;1.00;;;19.10;62.90;;;;;;5053042;28;20025;-60
2023/12/27 11:44:56;;;;;;;2.40;0.80;;;18.90;63.10;;;;;;5053565;28;20021;-60
2023/12/27 11:47:22;;;;;;;2.53;0.85;;;18.70;62.90;;;;;;5054135;28;20420;-60
2023/12/27 11:50:13;;;;;;;2.92;1.27;;;18.30;63.70;;;;;;5051620;28;20021;-61
2023/12/27 11:52:44;;;;;;;4.22;1.50;;;18.20;64.00;;;;;;5050847;28;20064;-60
2023/12/27 11:55:21;;;;;;;1.52;1.15;;;18.30;63.60;;;;;;5053363;28;20027;-63
2023/12/27 11:57:57;;;;;;;5.70;2.33;;;18.10;63.10;;;;;;5052298;28;20461;-63
2023/12/27 12:00:25;;;;;;;5.03;2.00;;;18.30;63.20;;;;;;5053683;28;20021;-63
2023/12/27 12:02:59;;;;;;;3.95;2.30;;;17.80;63.30;;;;;;5052277;28;20476;-63
2023/12/27 12:05:55;;;;;;;5.53;2.42;;;17.60;64.40;;;;;;5053660;28;20025;-63
2023/12/27 12:08:44;;;;;;;4.32;2.05;;;17.90;63.80;;;;;;5053380;28;20029;-63
2023/12/27 12:11:14;;;;;;;4.90;1.77;;;17.80;63.80;;;;;;5053485;28;20028;-64
2023/12/27 12:13:40;;;;;;;3.08;1.70;;;18.50;63.50;;;;;;5053580;28;20036;-63
2023/12/27 12:16:06;;;;;;;4.15;2.20;;;19.20;61.60;;;;;;5052324;28;20021;-63
2023/12/27 12:18:34;;;;;;;4.35;2.08;;;19.80;60.10;;;;;;5053451;28;20033;-63
2023/12/27 12:21:00;;;;;;;4.55;1.92;;;20.10;60.10;;;;;;5053319;28;20029;-63
2023/12/27 12:23:30;;;;;;;4.05;1.77;;;20.00;59.10;;;;;;5057495;28;20025;-63
2023/12/27 12:26:00;;;;;;;4.55;1.98;;;20.30;58.40;;;;;;5057496;28;20051;-63
2023/12/27 12:28:27;;;;;;;5.45;1.63;;;19.80;59.10;;;;;;5057443;28;20021;-66
2023/12/27 12:30:58;;;;;;;2.92;1.58;;;19.90;58.50;;;;;;5056369;28;20036;-63
2023/12/27 12:33:24;;;;;;;4.88;1.83;;;20.20;58.30;;;;;;5057468;28;20025;-63
2023/12/27 12:35:51;;;;;;;2.63;1.38;;;20.10;57.80;;;;;;5056122;28;20552;-64
2023/12/27 12:38:20;;;;;;;4.40;1.90;;;19.70;57.90;;;;;;5057150;28;20056;-63
2023/12/27 12:40:47;;;;;;;;;;;19.70;58.50;;;;;;5055627;28;20025;-63
2023/12/27 12:43:14;;;;;;;3.13;1.73;;;19.90;58.30;;;;;;5054307;28;19962;-64
2023/12/27 12:45:41;;;;;;;4.85;1.60;;;20.00;57.50;;;;;;5057450;28;20465;-63
2023/12/27 12:48:07;;;;;;;4.22;1.80;;;19.20;58.00;;;;;;5057198;28;20480;-63
2023/12/27 12:50:33;;;;;;;5.57;1.67;;;18.80;59.50;;;;;;5055775;28;20116;-63
2023/12/27 12:53:16;;;;;;;3.22;1.80;;;18.40;60.30;;;;;;5056902;28;20123;-68